createdAt,value
2022-07-30T00:02:01.609Z,98148.19
2022-07-30T00:07:04.635Z,98153.41
2022-07-30T00:12:08.467Z,98144.38
2022-07-30T00:17:10.420Z,98150.63
2022-07-30T00:22:12.334Z,98149.44
2022-07-30T00:27:14.686Z,98151.28
2022-07-30T00:32:16.837Z,98155.31
2022-07-30T00:37:18.708Z,98167.44
2022-07-30T00:42:25.823Z,98159.25
2022-07-30T00:47:27.790Z,98159.31
2022-07-30T00:52:30.042Z,98151.56
2022-07-30T00:57:32.063Z,98138.56
2022-07-30T01:02:34.444Z,98135.66
2022-07-30T01:07:36.843Z,98133.84
2022-07-30T01:12:39.878Z,98124.78
2022-07-30T01:17:42.042Z,98136.00
2022-07-30T01:23:02.826Z,98138.25
2022-07-30T01:28:10.569Z,98132.72
2022-07-30T01:33:15.394Z,98127.53
2022-07-30T01:38:22.050Z,98123.72
2022-07-30T01:43:25.936Z,98121.84
2022-07-30T01:48:30.677Z,98112.44
2022-07-30T01:53:36.860Z,98109.28
2022-07-30T01:58:40.250Z,98114.44
2022-07-30T02:04:03.421Z,98113.38
2022-07-30T02:09:11.096Z,98111.16
2022-07-30T02:14:19.870Z,98117.88
2022-07-30T02:19:32.641Z,98110.97
2022-07-30T02:24:38.084Z,98126.22
2022-07-30T02:29:40.988Z,98119.06
2022-07-30T02:34:44.862Z,98128.22
2022-07-30T02:39:48.444Z,98136.06
2022-07-30T02:44:52.961Z,98133.69
2022-07-30T02:49:58.091Z,98132.31
2022-07-30T02:55:02.835Z,98127.59
2022-07-30T03:00:05.917Z,98122.44
2022-07-30T03:05:09.080Z,98136.09
2022-07-30T03:10:11.937Z,98142.25
2022-07-30T03:15:14.505Z,98132.38
2022-07-30T03:20:23.364Z,98122.75
2022-07-30T03:25:28.432Z,98121.28
2022-07-30T03:30:31.160Z,98129.78
2022-07-30T03:35:33.500Z,98140.00
2022-07-30T03:40:35.792Z,98139.28
2022-07-30T03:45:41.571Z,98133.47
2022-07-30T03:50:45.796Z,98135.16
2022-07-30T03:55:47.913Z,98141.38
2022-07-30T04:01:08.455Z,98134.97
2022-07-30T04:06:11.182Z,98137.78
2022-07-30T04:11:13.071Z,98140.66
2022-07-30T04:16:40.302Z,98140.53
2022-07-30T04:21:49.387Z,98131.94
2022-07-30T04:26:52.393Z,98132.50
2022-07-30T04:31:55.400Z,98143.38
2022-07-30T04:37:03.848Z,98140.41
2022-07-30T04:42:06.254Z,98138.53
2022-07-30T04:47:08.734Z,98131.69
2022-07-30T04:52:18.601Z,98117.41
2022-07-30T04:57:20.819Z,98120.78
2022-07-30T05:02:24.659Z,98116.06
2022-07-30T05:07:27.928Z,98113.44
2022-07-30T05:12:48.093Z,98117.69
2022-07-30T05:17:52.303Z,98112.19
2022-07-30T05:22:55.110Z,98103.69
2022-07-30T05:27:58.887Z,98111.06
2022-07-30T05:33:01.257Z,98110.41
2022-07-30T05:38:06.100Z,98118.94
2022-07-30T05:43:18.635Z,98120.38
2022-07-30T05:48:20.735Z,98122.50
2022-07-30T05:53:22.794Z,98132.53
2022-07-30T05:58:43.321Z,98128.50
2022-07-30T06:03:48.322Z,98131.56
2022-07-30T06:09:08.808Z,98131.63
2022-07-30T06:14:10.802Z,98150.34
2022-07-30T06:19:19.379Z,98158.97
2022-07-30T06:24:21.907Z,98158.84
2022-07-30T06:29:36.717Z,98165.38
2022-07-30T06:34:38.653Z,98177.47
2022-07-30T06:39:57.466Z,98182.81
2022-07-30T06:45:00.397Z,98181.28
2022-07-30T06:50:05.254Z,98183.53
2022-07-30T06:55:07.679Z,98181.13
2022-07-30T07:00:23.761Z,98185.78
2022-07-30T07:05:29.063Z,98190.09
2022-07-30T07:10:32.199Z,98190.47
2022-07-30T07:15:48.367Z,98193.53
2022-07-30T07:20:54.895Z,98183.22
2022-07-30T07:30:59.552Z,98199.75
2022-07-30T07:36:01.503Z,98201.31
2022-07-30T07:41:06.910Z,98202.19
2022-07-30T07:46:09.888Z,98200.06
2022-07-30T07:51:12.019Z,98201.63
2022-07-30T07:56:14.399Z,98199.53
2022-07-30T08:01:17.284Z,98216.41
2022-07-30T08:06:37.849Z,98206.72
2022-07-30T08:12:06.149Z,98207.38
2022-07-30T08:17:28.275Z,98222.56
2022-07-30T08:22:47.145Z,98220.09
2022-07-30T08:27:50.391Z,98217.63
2022-07-30T08:32:54.888Z,98211.41
2022-07-30T08:37:57.022Z,98222.78
2022-07-30T08:43:00.372Z,98217.00
2022-07-30T08:48:03.374Z,98216.16
2022-07-30T08:53:13.843Z,98218.31
2022-07-30T08:58:28.452Z,98221.28
2022-07-30T09:03:30.781Z,98225.31
2022-07-30T09:08:35.149Z,98221.91
2022-07-30T09:13:39.220Z,98216.66
2022-07-30T09:18:44.587Z,98231.38
2022-07-30T09:24:11.223Z,98234.63
2022-07-30T09:29:32.338Z,98237.94
2022-07-30T09:34:52.560Z,98234.63
2022-07-30T09:40:15.191Z,98239.59
2022-07-30T09:45:58.923Z,98248.28
2022-07-30T09:51:00.881Z,98251.09
2022-07-30T09:56:24.884Z,98242.63
2022-07-30T10:01:49.799Z,98252.00
2022-07-30T10:07:25.307Z,98243.00
2022-07-30T10:12:33.220Z,98248.50
2022-07-30T10:17:38.648Z,98253.97
2022-07-30T10:23:18.373Z,98253.88
2022-07-30T10:28:43.601Z,98258.97
2022-07-30T10:33:46.806Z,98267.31
2022-07-30T10:38:52.477Z,98283.06
2022-07-30T10:43:57.621Z,98278.66
2022-07-30T10:49:17.606Z,98279.13
2022-07-30T10:54:33.402Z,98282.78
2022-07-30T10:59:55.666Z,98280.09
2022-07-30T11:05:17.442Z,98280.59
2022-07-30T11:10:37.403Z,98277.41
2022-07-30T11:15:58.556Z,98267.00
2022-07-30T11:21:22.519Z,98254.31
2022-07-30T11:26:41.101Z,98255.44
2022-07-30T11:31:56.242Z,98264.06
2022-07-30T11:37:18.354Z,98256.66
2022-07-30T11:42:32.767Z,98264.25
2022-07-30T11:47:35.931Z,98270.34
2022-07-30T11:52:38.518Z,98269.88
2022-07-30T11:57:42.563Z,98268.75
2022-07-30T12:02:45.634Z,98266.88
2022-07-30T12:07:47.642Z,98263.59
2022-07-30T12:12:49.909Z,98267.50
2022-07-30T12:18:10.996Z,98272.59
2022-07-30T12:23:15.647Z,98261.31
2022-07-30T12:28:33.342Z,98270.97
2022-07-30T12:33:38.347Z,98267.63
2022-07-30T12:38:45.829Z,98265.63
2022-07-30T12:43:52.885Z,98260.22
2022-07-30T12:49:21.109Z,98261.78
2022-07-30T12:54:28.111Z,98258.66
2022-07-30T12:59:32.658Z,98261.75
2022-07-30T13:04:39.974Z,98266.94
2022-07-30T13:10:12.919Z,98265.25
2022-07-30T13:15:20.291Z,98264.59
2022-07-30T13:20:22.780Z,98270.66
2022-07-30T13:25:25.254Z,98262.63
2022-07-30T13:30:41.035Z,98265.06
2022-07-30T13:35:43.910Z,98275.25
2022-07-30T13:40:45.938Z,98271.53
2022-07-30T13:45:49.301Z,98272.00
2022-07-30T13:50:52.049Z,98275.75
2022-07-30T13:55:54.504Z,98270.53
2022-07-30T14:00:56.689Z,98275.31
2022-07-30T14:06:10.479Z,98273.75
2022-07-30T14:11:13.735Z,98283.06
2022-07-30T14:16:42.429Z,98286.91
2022-07-30T14:21:38.534Z,98275.84
2022-07-30T14:26:40.525Z,98276.63
2022-07-30T14:31:42.693Z,98289.38
2022-07-30T14:36:44.851Z,98278.19
2022-07-30T14:41:46.933Z,98283.50
2022-07-30T14:46:52.077Z,98275.63
2022-07-30T14:51:54.734Z,98278.84
2022-07-30T14:56:58.604Z,98281.78
2022-07-30T15:02:01.063Z,98287.88
2022-07-30T15:07:03.168Z,98276.66
2022-07-30T15:12:10.101Z,98273.31
2022-07-30T15:17:12.497Z,98284.66
2022-07-30T15:22:15.911Z,98293.28
2022-07-30T15:27:18.114Z,98296.16
2022-07-30T15:32:20.214Z,98295.94
2022-07-30T15:37:22.256Z,98293.38
2022-07-30T15:42:27.451Z,98291.59
2022-07-30T15:47:29.780Z,98299.47
2022-07-30T15:52:32.080Z,98297.16
2022-07-30T15:57:34.064Z,98299.03
2022-07-30T16:02:37.115Z,98288.16
2022-07-30T16:07:39.015Z,98301.56
2022-07-30T16:12:42.301Z,98300.66
2022-07-30T16:17:44.220Z,98300.56
2022-07-30T16:22:46.147Z,98307.78
2022-07-30T16:27:48.033Z,98309.44
2022-07-30T16:32:50.599Z,98307.56
2022-07-30T16:37:53.460Z,98316.75
2022-07-30T16:42:55.294Z,98317.66
2022-07-30T16:47:57.548Z,98325.63
2022-07-30T16:52:59.414Z,98331.41
2022-07-30T16:58:01.547Z,98331.94
2022-07-30T17:03:03.649Z,98343.69
2022-07-30T17:08:05.827Z,98342.47
2022-07-30T17:13:10.219Z,98356.84
2022-07-30T17:18:12.393Z,98354.63
2022-07-30T17:23:14.266Z,98360.34
2022-07-30T17:28:18.204Z,98365.31
2022-07-30T17:33:20.088Z,98367.88
2022-07-30T17:38:21.889Z,98364.75
2022-07-30T17:43:23.747Z,98368.06
2022-07-30T17:48:25.622Z,98366.72
2022-07-30T17:53:27.609Z,98377.09
2022-07-30T17:58:29.525Z,98379.72
2022-07-30T18:03:32.305Z,98382.34
2022-07-30T18:08:35.167Z,98386.69
2022-07-30T18:13:37.015Z,98390.75
2022-07-30T18:18:39.230Z,98396.31
2022-07-30T18:23:41.368Z,98405.09
2022-07-30T18:28:43.982Z,98412.22
2022-07-30T18:33:45.766Z,98410.25
2022-07-30T18:38:49.785Z,98408.38
2022-07-30T18:43:53.330Z,98415.75
2022-07-30T18:48:55.294Z,98415.31
2022-07-30T18:53:59.180Z,98427.56
2022-07-30T18:59:01.148Z,98432.09
2022-07-30T19:04:04.054Z,98437.31
2022-07-30T19:09:06.970Z,98436.00
2022-07-30T19:14:18.986Z,98436.97
2022-07-30T19:19:20.894Z,98452.81
2022-07-30T19:24:22.999Z,98441.44
2022-07-30T19:29:28.807Z,98444.28
2022-07-30T19:34:31.556Z,98443.59
2022-07-30T19:39:34.989Z,98442.38
2022-07-30T19:44:41.069Z,98445.75
2022-07-30T19:49:43.522Z,98443.00
2022-07-30T19:54:46.787Z,98438.63
2022-07-30T19:59:59.975Z,98446.66
2022-07-30T20:05:14.143Z,98441.81
2022-07-30T20:10:17.537Z,98442.28
2022-07-30T20:15:20.135Z,98447.25
2022-07-30T20:20:26.232Z,98443.34
2022-07-30T20:25:29.115Z,98446.59
2022-07-30T20:30:39.790Z,98430.94
2022-07-30T20:35:44.033Z,98438.72
2022-07-30T20:40:47.591Z,98438.00
2022-07-30T20:45:49.723Z,98445.41
2022-07-30T20:50:51.661Z,98443.47
2022-07-30T20:55:53.609Z,98451.34
2022-07-30T21:00:55.933Z,98446.59
2022-07-30T21:05:57.891Z,98444.66
2022-07-30T21:11:03.269Z,98446.69
2022-07-30T21:16:16.125Z,98452.63
2022-07-30T21:21:29.269Z,98446.13
2022-07-30T21:26:40.628Z,98446.19
2022-07-30T21:32:01.680Z,98447.84
2022-07-30T21:37:04.385Z,98455.59
2022-07-30T21:42:06.279Z,98457.59
2022-07-30T21:47:10.793Z,98461.97
2022-07-30T21:52:12.798Z,98462.81
2022-07-30T21:57:14.583Z,98469.81
2022-07-30T22:02:19.009Z,98462.41
2022-07-30T22:07:22.052Z,98460.94
2022-07-30T22:12:28.792Z,98463.84
2022-07-30T22:17:37.458Z,98465.09
2022-07-30T22:23:00.750Z,98453.69
2022-07-30T22:28:02.593Z,98463.13
2022-07-30T22:33:16.188Z,98460.72
2022-07-30T22:38:19.732Z,98458.41
2022-07-30T22:43:21.745Z,98460.13
2022-07-30T22:48:25.448Z,98445.28
2022-07-30T22:54:10.906Z,98444.19
2022-07-30T22:58:51.126Z,98439.84
2022-07-30T23:03:53.030Z,98438.25
2022-07-30T23:08:55.733Z,98432.88
2022-07-30T23:13:59.419Z,98428.22
2022-07-30T23:19:01.785Z,98422.03
2022-07-30T23:24:03.783Z,98420.44
2022-07-30T23:29:05.614Z,98409.44
2022-07-30T23:34:07.440Z,98407.44
2022-07-30T23:39:09.274Z,98404.78
2022-07-30T23:44:11.071Z,98406.47
2022-07-30T23:49:12.879Z,98400.22
2022-07-30T23:54:14.803Z,98403.38
2022-07-30T23:59:16.635Z,98397.13
